Cacak, Serbia
Current Conditions -  °F | °C
As of 4:30 PM on Thursday 30 Oct 2014 (Local Time) from LYKV Reporting Station
Haze Haze  
Wind Chill: 46°   Ceiling: 3000
Heat Index: 48°   Visibility: 2.5mi
Dew Point: 39°   Wind: 5mph
Humidity: 71%   Direction: 320°NW
Pressure: 30.27"   Gusts: NA
Location:  43.9°N, 20.33°E
Report Text: LYKV 301430Z 32004KT 4000 BR BKN030 09/04 Q1025 NOSIG
Loading
Personal Weather Stations






























Interactive Weather Map
Tropical Storm Tracking
New forecast layout! Learn more

10-Day Weather Forecast

Advertisements
Track Severe Weather on mobile